Accueil
METAR-TAF:

METAR-TAF

Aéroports :

Aéroport international de Gibraltar

Gibraltar, Gibraltar

latitude: 36-09N, longitude: 005-21W, altitude: 5 m

Observation

Le bulletin a été fait il y a 41 minutes, à 18:50 UTC
Vent 10 kt de sud-ouest
Température 23°C
Humidité 50%
Pression 1018 hPa
Visibilité 10 km ou plus
Ciel clair

METAR: LXGB 201850Z 23010KT 9999 SKC 23/12 Q1018 NOSIG

Heure: 21:31 (19:31 UTC)

Prévision

Le bulletin a été fait il y a 2 heures et 46 minutes, à 16:45 UTC
Prévision valable du 20 à 18 UTC au 20 à 22 UTC
Vent 10 kt de ouest/sud-ouest
Visibilité 10 km ou plus
Quelques nuages à une hauteur de 5000 ft

TAF: LXGB 201645Z 2018/2022 25010KT 9999 FEW050

Observations et prévisions météorologiques de plus de 4000 aéroports (messages METAR et TAF).

Les stations disponibles sont représentées par des disques jaunes et rouges sur la carte.

Passer la souris dessus pour voir le nom de la station.

Cliquer dessus pour voir les observations et prévisions météorologiques.

Pour changer de carte: cliquez sur les boutons verts avec une croix noire pour zoomer, sur le bouton vert avec un tiret pour effectuer un zoom arrière, ou sur les flèches vertes pour les cartes adjacentes.


METAR-TAF: